메인 페이지
METAR-TAF:

METAR-TAF

공항 :

캘거리 국제공항

캘거리, 앨버타, 캐나다

위도: 51-07N, 경도: 114-01W, 고도: 1077m

현재 날씨관측

예보는 46분 전, 23:00시(UTC)에 발표되었습니다.
11kt, 순간 최대 풍속 16kt
온도 22°C
습도 38%
기압 1025 hPa
시정: 48.3km
고도 6000ft 상공 구름 보통
고도 9000ft 상공 구름 보통

METAR: CYYC 222300Z 01011G16KT 30SM SCT060 SCT090 22/07 A3026 RMK CU3AC1 AC TR SLP251 DENSITY ALT 4900FT

시각: 17:46 (23:46 UTC)

예보

예보는 3 시간 8분 전, 20:38시(UTC)에 발표되었습니다.
예보 대상 시간: 22일 21시부터 23일 18시까지 (UTC)
12kt, 순간 최대 풍속 22kt
시정: 10km
고도 5000ft 상공 구름 보통
고도 9000ft 상공 구름 많음
일시적
22일 21시부터 23일 04시까지 (UTC)
시정: 10km
고도 4000ft 상공 구름 많음
고도 8000ft 상공 구름 많음
약한소나기
23일 0400시부터 (UTC)
6kt
시정: 10km
고도 4000ft 상공 구름 많음
고도 8000ft 상공 흐림
일시적
23일 04시부터 23일 08시까지 (UTC)
시정: 10km
약한소나기
23일 0800시부터 (UTC)
여러 방향의 바람 3kt
시정: 10km
고도 2000ft 상공 구름 보통
고도 4000ft 상공 구름 많음
일시적
23일 08시부터 23일 14시까지 (UTC)
고도 2000ft 상공 구름 많음
고도 4000ft 상공 구름 많음
23일 1400시부터 (UTC)
남남동12kt
시정: 10km
고도 8000ft 상공 구름 많음

TAF: CYYC 222038Z 2221/2318 36012G22KT P6SM SCT050 BKN090 TEMPO 2221/2304 P6SM -SHRA BKN040 BKN080 FM230400 36006KT P6SM BKN040 OVC080 TEMPO 2304/2308 P6SM -SHRA FM230800 VRB03KT P6SM SCT020 BKN040 TEMPO 2308/2314 BKN020 BKN040 FM231400 16012KT P6SM BKN080 RMK NXT FCST BY 230000Z

4,000개 이상의 공항 관측 자료 및 예보 (METAR 및 TAF 보고).

지도상에서 검색 가능한 기상관측소가 노란 점과 빨간 점으로 표시되어 있습니다.

기상관측소 명을 보려면 표시 위로 마우스를 이동하세요.

날씨 관측과 예보를 보려면 클릭하세요.

지도 변경 : 확대하려면 엑스 표시가 있는 녹색 버튼, 축소하려면 빼기 표시가 있는 녹색 버튼, 다음 페이지의 지도를 보려면 녹색 화살표를 클릭하세요.


METAR-TAF: